Skip Navigation LinksHome page > Weather > Current weather Skip Navigation Links

Current Weather

Moundou, Chad

For information only: do not use for flight planning or navigation.
Latest weather
Observation time Saturday, August 27, 2016 1:00 PM WAT
Local time Saturday, August 27, 2016 4:17 PM WAT
Flight conditions Visual Meteorological Conditions
Winds
Wind speed calm
Visibility 6.2 mi.
Sky condition
Ceiling 4,000 ft. broken clouds
Cloud layer broken clouds 4,000 ft.
Temperature 84°F
Dewpoint 72°F
Altimeter 29.94 in.Hg
Derived measurements
Relative humidity 66%
Heat index 90°F
Density altitude 2365 ft.
METAR FTTD 271200Z 00000KT 9999 BKN040TCU 29/22 Q1014

Settings

Location code

InnerDrive.Weather 4.0.5722.1 Release CLR 4.0.30319.34209
Copyright ©2015 Inner Drive Technology. All rights reserved. Portions Copyright ©1986-2015 David Braverman.

Find weather

Site navigation


Skip Navigation Links

Place info

Page info

PayPal - The safer, easier way to pay online!

Return home.

Copyright ©2016 Inner Drive Technology. Purveyors of fine, hand-crafted computer software. Page printed 2016-08-27T15:17:12 UTC.